Time;durP1;ratioP1;P1;durP2;ratioP2;P2;SDS_P1;SDS_P2;PMS_P1;PMS_P2;Temp;Humidity;BMP_temperature;BMP_pressure;BME280_temperature;BME280_humidity;BME280_pressure;Samples;Min_cycle;Max_cycle;Signal;HPM_P1;HPM_P2
2021/08/03 00:00:07;;;;;;;6.15;4.10;;;;;;;;;;5120273;28;20057;-82
2021/08/03 00:02:35;;;;;;;7.35;4.03;;;;;;;;;;5120093;28;20023;-82
2021/08/03 00:05:02;;;;;;;5.32;4.30;;;;;;;;;;5119990;28;20024;-82
2021/08/03 00:07:28;;;;;;;5.15;4.40;;;;;;;;;;5119892;28;20019;-83
2021/08/03 00:09:56;;;;;;;8.88;4.30;;;;;;;;;;5118816;28;20051;-82
2021/08/03 00:12:22;;;;;;;7.93;4.57;;;;;;;;;;5119946;28;20409;-83
2021/08/03 00:14:49;;;;;;;8.02;4.45;;;;;;;;;;5120056;28;20409;-83
2021/08/03 00:17:17;;;;;;;7.78;4.38;;;;;;;;;;5119834;28;20028;-83
2021/08/03 00:19:44;;;;;;;7.82;5.00;;;;;;;;;;5119759;28;20023;-83
2021/08/03 00:22:11;;;;;;;7.63;4.65;;;;;;;;;;5119669;28;20099;-82
2021/08/03 00:24:37;;;;;;;9.18;4.70;;;;;;;;;;5119571;28;20042;-82
2021/08/03 00:27:04;;;;;;;5.82;4.18;;;;;;;;;;5119458;28;20036;-83
2021/08/03 00:29:30;;;;;;;6.30;4.70;;;;;;;;;;5119557;28;20015;-83
2021/08/03 00:31:57;;;;;;;8.55;4.50;;;;;;;;;;5117863;28;20118;-82
2021/08/03 00:34:23;;;;;;;7.22;4.75;;;;;;;;;;5119344;28;20060;-83
2021/08/03 00:36:49;;;;;;;8.73;4.32;;;;;;;;;;5119350;28;20020;-82
2021/08/03 00:39:15;;;;;;;6.30;4.25;;;;;;;;;;5119304;28;20400;-82
2021/08/03 00:41:44;;;;;;;11.00;4.68;;;;;;;;;;5119452;28;20031;-83
2021/08/03 00:44:10;;;;;;;6.35;4.53;;;;;;;;;;5119248;28;20102;-83
2021/08/03 00:46:36;;;;;;;7.40;4.25;;;;;;;;;;5118061;28;20028;-83
2021/08/03 00:49:03;;;;;;;7.10;4.28;;;;;;;;;;5119076;28;20053;-83
2021/08/03 00:51:29;;;;;;;7.50;4.00;;;;;;;;;;5119171;28;20028;-83
2021/08/03 00:53:55;;;;;;;7.75;4.53;;;;;;;;;;5118958;28;20023;-83
2021/08/03 00:56:21;;;;;;;9.15;4.28;;;;;;;;;;5119223;28;20027;-83
2021/08/03 00:58:47;;;;;;;8.65;3.75;;;;;;;;;;5117428;28;20036;-82
2021/08/03 01:01:13;;;;;;;11.90;4.35;;;;;;;;;;5117718;28;20066;-82
2021/08/03 01:03:39;;;;;;;7.60;3.80;;;;;;;;;;5118780;28;20042;-82
2021/08/03 01:06:21;;;;;;;7.40;3.97;;;;;;;;;;5118883;28;20349;-82
2021/08/03 01:08:55;;;;;;;8.98;4.10;;;;;;;;;;5118709;28;20030;-82
2021/08/03 01:11:46;;;;;;;4.90;3.67;;;;;;;;;;5118900;28;20031;-82
2021/08/03 01:14:19;;;;;;;9.73;3.80;;;;;;;;;;5118546;28;20452;-82
2021/08/03 01:16:48;;;;;;;8.18;3.83;;;;;;;;;;5118559;28;20039;-82
2021/08/03 01:19:23;;;;;;;7.38;3.90;;;;;;;;;;5118389;28;20028;-82
2021/08/03 01:21:50;;;;;;;7.40;3.92;;;;;;;;;;5118167;28;20023;-83
2021/08/03 01:24:16;;;;;;;12.93;4.57;;;;;;;;;;5118574;28;20030;-83
2021/08/03 01:26:45;;;;;;;8.32;3.60;;;;;;;;;;5118453;27;20465;-83
2021/08/03 01:29:13;;;;;;;7.93;4.20;;;;;;;;;;5117993;28;20052;-83
2021/08/03 01:31:42;;;;;;;5.40;3.83;;;;;;;;;;5118357;28;20068;-83
2021/08/03 01:34:13;;;;;;;8.05;4.40;;;;;;;;;;5118305;28;20028;-83
2021/08/03 01:36:40;;;;;;;6.78;3.95;;;;;;;;;;5118535;28;20024;-83
2021/08/03 01:39:06;;;;;;;5.47;3.88;;;;;;;;;;5118223;28;20038;-83
2021/08/03 01:41:33;;;;;;;7.70;4.07;;;;;;;;;;5118447;28;20062;-82
2021/08/03 01:44:01;;;;;;;5.05;3.72;;;;;;;;;;5118163;28;20401;-83
2021/08/03 01:46:28;;;;;;;7.25;4.43;;;;;;;;;;5116821;28;20069;-83
2021/08/03 01:48:55;;;;;;;7.95;4.00;;;;;;;;;;5116557;28;20031;-82
2021/08/03 01:51:21;;;;;;;10.57;4.28;;;;;;;;;;5117810;28;20030;-83
2021/08/03 01:53:49;;;;;;;7.55;4.00;;;;;;;;;;5117945;28;20030;-83
2021/08/03 01:56:15;;;;;;;10.68;4.10;;;;;;;;;;5117968;28;20041;-83
2021/08/03 01:58:42;;;;;;;11.05;4.70;;;;;;;;;;5117830;28;20409;-83
2021/08/03 02:01:08;;;;;;;6.55;4.18;;;;;;;;;;5117925;28;20393;-83
2021/08/03 02:03:34;;;;;;;11.77;4.70;;;;;;;;;;5117995;28;20129;-82
2021/08/03 02:06:05;;;;;;;4.90;4.20;;;;;;;;;;5117734;28;20401;-82
2021/08/03 02:08:31;;;;;;;9.68;4.32;;;;;;;;;;5117764;28;20039;-82
2021/08/03 02:10:58;;;;;;;6.70;3.80;;;;;;;;;;5117751;28;20027;-83
2021/08/03 02:13:24;;;;;;;6.20;3.70;;;;;;;;;;5117527;28;20409;-83
2021/08/03 02:15:51;;;;;;;6.05;4.07;;;;;;;;;;5117586;28;20028;-82
2021/08/03 02:18:17;;;;;;;6.68;4.30;;;;;;;;;;5117465;28;20059;-82
2021/08/03 02:20:44;;;;;;;6.93;3.92;;;;;;;;;;5117819;28;20197;-83
2021/08/03 02:23:11;;;;;;;5.95;3.92;;;;;;;;;;5116292;28;20436;-83
2021/08/03 02:25:37;;;;;;;5.60;4.07;;;;;;;;;;5117459;28;20054;-83
2021/08/03 02:28:04;;;;;;;6.32;3.55;;;;;;;;;;5116077;28;20047;-83
2021/08/03 02:30:30;;;;;;;5.47;3.80;;;;;;;;;;5117438;28;20065;-83
2021/08/03 02:33:13;;;;;;;6.93;3.50;;;;;;;;;;5117670;28;20047;-83
2021/08/03 02:35:53;;;;;;;6.57;4.13;;;;;;;;;;5117634;28;20115;-83
2021/08/03 02:38:21;;;;;;;7.05;4.18;;;;;;;;;;5117228;28;20077;-83
2021/08/03 02:40:48;;;;;;;12.75;4.45;;;;;;;;;;5117584;28;20035;-83
2021/08/03 02:43:14;;;;;;;9.55;4.38;;;;;;;;;;5117425;28;20047;-83
2021/08/03 02:45:41;;;;;;;7.05;4.40;;;;;;;;;;5117552;28;20336;-83
2021/08/03 02:48:15;;;;;;;5.65;4.50;;;;;;;;;;5117273;28;20024;-82
2021/08/03 02:50:45;;;;;;;9.18;5.07;;;;;;;;;;5117656;28;20072;-83
2021/08/03 02:53:24;;;;;;;6.47;4.88;;;;;;;;;;5117339;28;20020;-82
2021/08/03 02:55:56;;;;;;;8.75;4.82;;;;;;;;;;5117212;28;20466;-82
2021/08/03 02:58:28;;;;;;;9.85;5.00;;;;;;;;;;5117287;28;20077;-82
2021/08/03 03:00:55;;;;;;;8.10;4.57;;;;;;;;;;5119664;28;20465;-82
2021/08/03 03:03:23;;;;;;;8.48;4.65;;;;;;;;;;5120133;28;20019;-82
2021/08/03 03:05:52;;;;;;;10.70;4.90;;;;;;;;;;5121103;28;20110;-83
2021/08/03 03:08:19;;;;;;;12.27;4.70;;;;;;;;;;5121249;28;20408;-82
2021/08/03 03:10:49;;;;;;;7.63;4.78;;;;;;;;;;5121008;28;20072;-82
2021/08/03 03:13:17;;;;;;;8.75;4.70;;;;;;;;;;5121245;28;20031;-83
2021/08/03 03:15:44;;;;;;;8.80;4.93;;;;;;;;;;5121216;28;20103;-83
2021/08/03 03:18:10;;;;;;;11.77;4.78;;;;;;;;;;5119438;28;20032;-83
2021/08/03 03:20:38;;;;;;;10.63;5.50;;;;;;;;;;5120917;28;20024;-83
2021/08/03 03:23:06;;;;;;;8.85;5.43;;;;;;;;;;5120820;28;20019;-83
2021/08/03 03:25:32;;;;;;;11.05;5.38;;;;;;;;;;5121003;28;20026;-83
2021/08/03 03:28:02;;;;;;;8.70;4.78;;;;;;;;;;5120713;28;20440;-83
2021/08/03 03:30:28;;;;;;;15.65;4.90;;;;;;;;;;5120520;28;20397;-83
2021/08/03 03:33:01;;;;;;;14.70;4.95;;;;;;;;;;5120384;28;20034;-83
2021/08/03 03:35:28;;;;;;;11.82;5.28;;;;;;;;;;5120633;28;20051;-83
2021/08/03 03:37:54;;;;;;;7.90;4.80;;;;;;;;;;5120430;28;20044;-83
2021/08/03 03:40:22;;;;;;;14.15;5.13;;;;;;;;;;5120622;28;20019;-84
2021/08/03 03:42:49;;;;;;;15.80;4.72;;;;;;;;;;5120950;28;20024;-90
2021/08/03 03:45:16;;;;;;;18.38;5.20;;;;;;;;;;5119288;28;20075;-85
2021/08/03 03:47:48;;;;;;;13.77;4.90;;;;;;;;;;5120660;28;20023;-84
2021/08/03 03:50:27;;;;;;;6.43;4.70;;;;;;;;;;5119896;28;20024;-85
2021/08/03 03:53:19;;;;;;;10.93;5.10;;;;;;;;;;5120374;28;20427;-85
2021/08/03 03:55:49;;;;;;;16.80;5.63;;;;;;;;;;5115405;28;20043;-85
2021/08/03 03:58:16;;;;;;;16.10;5.72;;;;;;;;;;5120231;28;20333;-85
2021/08/03 04:00:42;;;;;;;10.82;5.90;;;;;;;;;;5120462;28;20019;-85
2021/08/03 04:03:09;;;;;;;14.95;5.45;;;;;;;;;;5120041;28;20405;-85
2021/08/03 04:05:40;;;;;;;19.05;5.40;;;;;;;;;;5120515;28;20061;-85
2021/08/03 04:08:09;;;;;;;10.52;5.68;;;;;;;;;;5120237;28;20317;-85
2021/08/03 04:10:37;;;;;;;10.63;5.30;;;;;;;;;;5119918;28;20035;-84
2021/08/03 04:13:03;;;;;;;9.98;5.07;;;;;;;;;;5119989;28;20321;-85
2021/08/03 04:15:31;;;;;;;7.32;5.05;;;;;;;;;;5120152;28;20068;-85
2021/08/03 04:17:57;;;;;;;7.45;5.07;;;;;;;;;;5119892;28;20026;-85
2021/08/03 04:20:24;;;;;;;8.35;4.97;;;;;;;;;;5120201;28;20064;-85
2021/08/03 04:22:50;;;;;;;13.38;5.15;;;;;;;;;;5118648;28;20049;-85
2021/08/03 04:25:16;;;;;;;7.90;5.40;;;;;;;;;;5119896;28;20031;-84
2021/08/03 04:27:42;;;;;;;10.20;5.57;;;;;;;;;;5119931;28;20074;-85
2021/08/03 04:30:08;;;;;;;12.43;5.35;;;;;;;;;;5119835;28;20020;-85
2021/08/03 04:32:34;;;;;;;11.85;5.85;;;;;;;;;;5119791;28;20051;-85
2021/08/03 04:35:00;;;;;;;7.40;5.30;;;;;;;;;;5119664;28;20073;-85
2021/08/03 04:37:27;;;;;;;11.48;5.70;;;;;;;;;;5119798;28;20026;-84
2021/08/03 04:39:53;;;;;;;6.55;4.45;;;;;;;;;;5119684;28;20313;-85
2021/08/03 04:42:19;;;;;;;6.43;4.80;;;;;;;;;;5118556;28;20042;-85
2021/08/03 04:44:45;;;;;;;9.98;6.35;;;;;;;;;;5119480;28;20026;-85
2021/08/03 04:47:11;;;;;;;11.35;7.43;;;;;;;;;;5119371;28;20015;-85
2021/08/03 04:49:37;;;;;;;14.05;7.03;;;;;;;;;;5119548;28;20027;-86
2021/08/03 04:52:04;;;;;;;6.75;4.75;;;;;;;;;;5118090;28;20070;-85
2021/08/03 04:54:31;;;;;;;7.88;4.28;;;;;;;;;;5118447;28;20023;-86
2021/08/03 04:56:57;;;;;;;8.05;4.95;;;;;;;;;;5118265;28;20038;-85
2021/08/03 04:59:23;;;;;;;9.77;4.65;;;;;;;;;;5119171;28;20064;-85
2021/08/03 05:01:49;;;;;;;10.15;4.68;;;;;;;;;;5119358;28;20035;-85
2021/08/03 05:04:15;;;;;;;6.45;4.00;;;;;;;;;;5119374;28;20027;-83
2021/08/03 05:06:41;;;;;;;11.45;4.38;;;;;;;;;;5119164;28;20016;-87
2021/08/03 05:09:07;;;;;;;10.30;5.13;;;;;;;;;;5118951;28;20397;-85
2021/08/03 05:11:33;;;;;;;10.40;7.03;;;;;;;;;;5118910;28;20198;-84
2021/08/03 05:13:59;;;;;;;6.88;5.70;;;;;;;;;;5117903;28;20073;-85
2021/08/03 05:16:28;;;;;;;12.68;7.25;;;;;;;;;;5117817;28;20039;-85
2021/08/03 05:18:54;;;;;;;7.43;5.10;;;;;;;;;;5117405;28;20032;-85
2021/08/03 05:21:20;;;;;;;11.55;5.00;;;;;;;;;;5118902;28;20024;-84
2021/08/03 05:23:47;;;;;;;8.50;6.43;;;;;;;;;;5118198;28;20020;-84
2021/08/03 05:26:13;;;;;;;6.88;3.63;;;;;;;;;;5117261;28;20027;-84
2021/08/03 05:28:39;;;;;;;10.35;4.20;;;;;;;;;;5117240;28;20066;-85
2021/08/03 05:31:05;;;;;;;3.67;3.17;;;;;;;;;;5118695;28;20392;-85
2021/08/03 05:33:31;;;;;;;4.70;3.55;;;;;;;;;;5118534;28;20397;-86
2021/08/03 05:35:57;;;;;;;7.88;3.92;;;;;;;;;;5118883;28;20023;-85
2021/08/03 05:38:23;;;;;;;8.35;5.70;;;;;;;;;;5118586;28;20023;-86
2021/08/03 05:40:49;;;;;;;18.50;12.43;;;;;;;;;;5118703;28;20291;-85
2021/08/03 05:43:15;;;;;;;15.52;13.65;;;;;;;;;;5118166;28;20294;-84
2021/08/03 05:45:41;;;;;;;45.53;31.20;;;;;;;;;;5118381;28;20040;-84
2021/08/03 05:48:07;;;;;;;193.98;143.05;;;;;;;;;;5118112;28;20035;-83
2021/08/03 05:50:33;;;;;;;9.55;8.50;;;;;;;;;;5118252;28;20046;-84
2021/08/03 05:52:59;;;;;;;17.65;12.27;;;;;;;;;;5117324;28;20455;-84
2021/08/03 05:55:26;;;;;;;4.50;3.03;;;;;;;;;;5117953;28;20420;-84
2021/08/03 05:57:52;;;;;;;6.15;3.17;;;;;;;;;;5118435;28;20035;-86
2021/08/03 06:00:18;;;;;;;4.65;2.88;;;;;;;;;;5118391;28;20063;-85
2021/08/03 06:02:44;;;;;;;4.35;2.97;;;;;;;;;;5118231;28;20020;-85
2021/08/03 06:05:10;;;;;;;2.97;2.67;;;;;;;;;;5116791;28;20066;-85
2021/08/03 06:07:40;;;;;;;4.90;3.50;;;;;;;;;;5116703;28;20039;-85
2021/08/03 06:10:07;;;;;;;7.13;3.47;;;;;;;;;;5117169;28;20027;-85
2021/08/03 06:12:34;;;;;;;6.40;3.25;;;;;;;;;;5118026;28;20032;-85
2021/08/03 06:15:01;;;;;;;5.55;3.22;;;;;;;;;;5118076;28;20123;-85
2021/08/03 06:17:34;;;;;;;7.13;3.13;;;;;;;;;;5117920;28;20023;-85
2021/08/03 06:20:00;;;;;;;7.47;3.42;;;;;;;;;;5116821;28;20023;-85
2021/08/03 06:22:26;;;;;;;5.88;2.90;;;;;;;;;;5117680;28;20020;-85
2021/08/03 06:24:53;;;;;;;6.70;2.83;;;;;;;;;;5117824;28;20019;-85
2021/08/03 06:27:20;;;;;;;3.95;2.92;;;;;;;;;;5117637;28;20056;-85
2021/08/03 06:29:46;;;;;;;4.78;3.08;;;;;;;;;;5118015;28;20091;-86
2021/08/03 06:32:13;;;;;;;3.33;3.00;;;;;;;;;;5117725;28;20309;-85
2021/08/03 06:34:43;;;;;;;4.07;2.92;;;;;;;;;;5120079;28;20019;-85
2021/08/03 06:37:09;;;;;;;3.15;2.78;;;;;;;;;;5121154;28;20020;-85
2021/08/03 06:39:35;;;;;;;3.65;2.70;;;;;;;;;;5121937;28;20470;-84
2021/08/03 06:42:37;;;;;;;5.32;2.90;;;;;;;;;;5121965;28;20044;-85
2021/08/03 06:45:06;;;;;;;5.75;3.42;;;;;;;;;;5039491;28;20562;-85
2021/08/03 06:47:52;;;;;;;5.38;3.08;;;;;;;;;;5039546;28;20116;-85
2021/08/03 06:50:22;;;;;;;6.35;4.30;;;;;;;;;;4980232;28;20043;-85
2021/08/03 06:52:50;;;;;;;8.85;5.43;;;;;;;;;;4980405;28;20039;-85
2021/08/03 06:55:16;;;;;;;6.00;4.13;;;;;;;;;;4980409;28;20302;-86
2021/08/03 06:57:45;;;;;;;5.32;3.22;;;;;;;;;;4980199;28;20034;-85
2021/08/03 07:00:11;;;;;;;5.68;3.15;;;;;;;;;;4980407;28;20090;-86
2021/08/03 07:02:41;;;;;;;11.15;5.15;;;;;;;;;;4979940;28;20389;-85
2021/08/03 07:05:08;;;;;;;7.50;3.50;;;;;;;;;;4980191;28;20023;-85
2021/08/03 07:07:35;;;;;;;6.57;3.72;;;;;;;;;;4980353;28;20027;-86
2021/08/03 07:10:05;;;;;;;5.90;3.60;;;;;;;;;;4980131;28;20030;-86
2021/08/03 07:12:31;;;;;;;9.93;3.55;;;;;;;;;;4980059;28;20042;-85
2021/08/03 07:14:57;;;;;;;5.78;4.00;;;;;;;;;;4980042;28;20078;-85
2021/08/03 07:17:29;;;;;;;8.02;3.85;;;;;;;;;;4979694;28;20026;-85
2021/08/03 07:19:57;;;;;;;7.65;3.88;;;;;;;;;;5049757;28;20120;-85
2021/08/03 07:22:23;;;;;;;8.02;3.83;;;;;;;;;;5058675;28;20032;-85
2021/08/03 07:24:49;;;;;;;7.20;4.40;;;;;;;;;;5058617;28;20083;-86
2021/08/03 07:27:16;;;;;;;14.10;8.27;;;;;;;;;;5087138;28;20051;-85
2021/08/03 07:29:43;;;;;;;8.90;5.47;;;;;;;;;;5121069;28;20409;-86
2021/08/03 07:32:09;;;;;;;10.27;4.95;;;;;;;;;;5121105;28;20054;-86
2021/08/03 07:34:38;;;;;;;18.67;8.68;;;;;;;;;;5120798;28;20083;-85
2021/08/03 07:37:06;;;;;;;7.10;5.22;;;;;;;;;;5120888;28;20039;-86
2021/08/03 07:39:32;;;;;;;8.45;4.35;;;;;;;;;;5121168;28;20076;-86
2021/08/03 07:41:58;;;;;;;8.07;3.95;;;;;;;;;;5121180;28;20099;-86
2021/08/03 07:44:24;;;;;;;4.65;3.55;;;;;;;;;;5121041;28;20019;-86
2021/08/03 07:46:51;;;;;;;4.43;3.63;;;;;;;;;;5119944;28;20401;-86
2021/08/03 07:49:18;;;;;;;5.72;3.65;;;;;;;;;;5120750;28;20039;-86
2021/08/03 07:51:46;;;;;;;4.60;3.33;;;;;;;;;;5120838;28;20028;-87
2021/08/03 07:54:12;;;;;;;4.55;3.83;;;;;;;;;;5120666;28;20032;-87
2021/08/03 07:56:38;;;;;;;6.25;3.90;;;;;;;;;;5120737;28;20034;-87
2021/08/03 07:59:04;;;;;;;6.32;3.92;;;;;;;;;;5120733;28;20027;-86
2021/08/03 08:01:30;;;;;;;6.97;3.70;;;;;;;;;;5119372;28;20020;-86
2021/08/03 08:03:56;;;;;;;5.50;3.50;;;;;;;;;;5120316;28;20026;-86
2021/08/03 08:06:22;;;;;;;4.55;3.40;;;;;;;;;;5120291;28;20050;-85
2021/08/03 08:08:48;;;;;;;6.50;3.33;;;;;;;;;;5119204;28;20027;-85
2021/08/03 08:11:14;;;;;;;3.83;3.13;;;;;;;;;;5119211;28;20043;-85
2021/08/03 08:13:40;;;;;;;3.35;2.80;;;;;;;;;;5120435;28;20019;-86
2021/08/03 08:16:06;;;;;;;4.72;3.25;;;;;;;;;;5118969;28;20041;-85
2021/08/03 08:18:33;;;;;;;6.53;3.20;;;;;;;;;;5119023;28;20433;-85
2021/08/03 08:20:59;;;;;;;6.10;3.15;;;;;;;;;;5120101;28;20409;-85
2021/08/03 08:23:25;;;;;;;5.65;3.20;;;;;;;;;;5119791;28;20100;-85
2021/08/03 08:25:51;;;;;;;4.90;2.90;;;;;;;;;;5119889;28;20015;-85
2021/08/03 08:28:17;;;;;;;4.80;2.67;;;;;;;;;;5119822;28;20058;-86
2021/08/03 08:30:43;;;;;;;4.53;2.88;;;;;;;;;;5118856;28;20096;-84
2021/08/03 08:33:10;;;;;;;4.22;2.60;;;;;;;;;;5118483;28;20325;-85
2021/08/03 08:35:36;;;;;;;3.28;2.50;;;;;;;;;;5119520;28;20023;-85
2021/08/03 08:38:02;;;;;;;3.00;2.50;;;;;;;;;;5119737;28;20035;-86
2021/08/03 08:40:28;;;;;;;3.47;2.67;;;;;;;;;;5119883;28;20095;-85
2021/08/03 08:42:55;;;;;;;3.00;2.55;;;;;;;;;;5119660;28;20031;-85
2021/08/03 08:45:21;;;;;;;7.57;3.00;;;;;;;;;;5118723;28;20118;-85
2021/08/03 08:47:48;;;;;;;5.28;2.72;;;;;;;;;;5119706;28;20425;-87
2021/08/03 08:50:15;;;;;;;3.45;2.58;;;;;;;;;;5118365;28;20032;-85
2021/08/03 08:52:41;;;;;;;3.03;2.50;;;;;;;;;;5118047;28;20032;-85
2021/08/03 08:55:09;;;;;;;2.50;2.00;;;;;;;;;;5117937;28;20042;-86
2021/08/03 08:57:36;;;;;;;4.78;2.08;;;;;;;;;;5118243;28;20039;-87
2021/08/03 09:00:03;;;;;;;4.75;2.20;;;;;;;;;;5119837;28;20015;-86
2021/08/03 09:02:41;;;;;;;3.08;2.03;;;;;;;;;;5119503;28;20020;-86
2021/08/03 09:05:08;;;;;;;6.18;2.03;;;;;;;;;;5119337;28;20405;-86
2021/08/03 09:07:51;;;;;;;3.70;2.38;;;;;;;;;;5119493;28;20047;-86
2021/08/03 09:10:36;;;;;;;6.38;2.35;;;;;;;;;;5119207;28;20053;-86
2021/08/03 09:13:02;;;;;;;4.30;2.05;;;;;;;;;;5119051;28;20051;-87
2021/08/03 09:15:29;;;;;;;3.03;2.10;;;;;;;;;;5119572;28;20027;-86
2021/08/03 09:18:08;;;;;;;5.15;2.35;;;;;;;;;;5118959;28;20020;-88
2021/08/03 09:20:35;;;;;;;4.60;1.65;;;;;;;;;;5119008;28;20031;-87
2021/08/03 09:23:01;;;;;;;6.07;2.00;;;;;;;;;;5119037;28;20306;-86
2021/08/03 09:25:27;;;;;;;5.00;1.90;;;;;;;;;;5117351;28;20036;-85
2021/08/03 09:28:01;;;;;;;2.40;2.20;;;;;;;;;;5118541;28;20454;-86
2021/08/03 09:30:29;;;;;;;2.50;1.95;;;;;;;;;;5117598;28;20034;-85
2021/08/03 09:32:56;;;;;;;4.60;1.70;;;;;;;;;;5118685;28;20092;-85
2021/08/03 09:35:23;;;;;;;3.33;2.00;;;;;;;;;;5117401;28;20024;-82
2021/08/03 09:37:50;;;;;;;8.38;2.20;;;;;;;;;;5118420;28;20053;-84
2021/08/03 09:40:25;;;;;;;4.03;1.90;;;;;;;;;;5116915;28;20034;-84
2021/08/03 09:42:58;;;;;;;2.30;1.92;;;;;;;;;;5118385;27;20045;-84
2021/08/03 09:45:25;;;;;;;6.07;1.83;;;;;;;;;;5138218;27;20097;-84
2021/08/03 09:47:51;;;;;;;4.32;1.85;;;;;;;;;;5138771;27;20075;-84
2021/08/03 09:50:19;;;;;;;6.70;1.60;;;;;;;;;;5138890;27;20023;-84
2021/08/03 09:52:47;;;;;;;1.98;1.77;;;;;;;;;;5138709;27;20034;-84
2021/08/03 09:55:15;;;;;;;2.42;1.70;;;;;;;;;;5137362;27;20072;-85
2021/08/03 09:57:41;;;;;;;2.10;1.60;;;;;;;;;;5138537;27;20071;-85
2021/08/03 10:00:28;;;;;;;1.90;1.70;;;;;;;;;;5138736;27;20035;-84
2021/08/03 10:02:55;;;;;;;4.07;1.60;;;;;;;;;;5137784;27;20052;-85
2021/08/03 10:05:22;;;;;;;5.45;1.95;;;;;;;;;;5138341;27;20026;-84
2021/08/03 10:07:48;;;;;;;4.28;1.95;;;;;;;;;;5138564;27;20417;-85
2021/08/03 10:10:15;;;;;;;2.85;1.80;;;;;;;;;;5138203;27;20027;-85
2021/08/03 10:12:41;;;;;;;5.18;1.75;;;;;;;;;;5138379;27;20431;-84
2021/08/03 10:15:11;;;;;;;5.68;2.08;;;;;;;;;;5138542;27;20027;-84
2021/08/03 10:17:37;;;;;;;3.35;1.80;;;;;;;;;;5137773;27;20032;-84
2021/08/03 10:20:04;;;;;;;5.00;2.13;;;;;;;;;;5137381;27;20073;-84
2021/08/03 10:22:31;;;;;;;2.95;2.00;;;;;;;;;;5138167;27;20023;-85
2021/08/03 10:25:00;;;;;;;3.75;2.22;;;;;;;;;;5138065;28;20023;-84
2021/08/03 10:27:45;;;;;;;3.25;2.20;;;;;;;;;;5137042;28;20070;-85
2021/08/03 10:30:28;;;;;;;7.03;2.60;;;;;;;;;;5137661;27;20043;-84
2021/08/03 10:32:54;;;;;;;;;;;;;;;;;;5137712;28;20016;-84
2021/08/03 10:35:37;;;;;;;5.05;2.13;;;;;;;;;;5138268;28;19911;-84
2021/08/03 10:38:03;;;;;;;3.65;2.03;;;;;;;;;;5137034;28;20077;-85
2021/08/03 10:40:44;;;;;;;3.83;2.50;;;;;;;;;;5138409;28;20023;-85
2021/08/03 10:43:18;;;;;;;3.20;2.15;;;;;;;;;;5138108;28;20440;-84
2021/08/03 10:45:44;;;;;;;6.13;2.67;;;;;;;;;;5138337;28;20026;-82
2021/08/03 10:48:11;;;;;;;7.85;2.60;;;;;;;;;;5137960;28;20390;-82
2021/08/03 10:50:38;;;;;;;4.07;2.60;;;;;;;;;;5137032;28;20031;-82
2021/08/03 10:53:04;;;;;;;3.95;2.95;;;;;;;;;;5138277;27;20023;-82
2021/08/03 10:55:39;;;;;;;3.10;2.80;;;;;;;;;;5138116;28;20322;-82
2021/08/03 10:58:13;;;;;;;4.13;3.22;;;;;;;;;;5136709;28;20031;-82
2021/08/03 11:00:45;;;;;;;7.53;4.18;;;;;;;;;;5137958;27;20023;-82
2021/08/03 11:03:29;;;;;;;6.95;4.00;;;;;;;;;;5137940;28;20023;-82
2021/08/03 11:05:55;;;;;;;4.80;4.30;;;;;;;;;;5137837;28;20049;-82
2021/08/03 11:08:34;;;;;;;5.85;4.13;;;;;;;;;;5137917;28;20393;-82
2021/08/03 11:11:11;;;;;;;5.30;4.80;;;;;;;;;;5137975;28;20122;-84
2021/08/03 11:13:38;;;;;;;8.30;4.78;;;;;;;;;;5137804;28;20103;-84
2021/08/03 11:16:05;;;;;;;6.97;4.68;;;;;;;;;;5137799;28;20029;-84
2021/08/03 11:18:44;;;;;;;5.45;4.95;;;;;;;;;;5137859;27;20027;-84
2021/08/03 11:21:12;;;;;;;7.95;3.85;;;;;;;;;;5137783;27;20027;-84
2021/08/03 11:23:58;;;;;;;7.60;4.03;;;;;;;;;;5141529;27;20088;-84
2021/08/03 11:26:32;;;;;;;7.03;5.72;;;;;;;;;;5141637;27;20102;-84
2021/08/03 11:29:03;;;;;;;10.55;6.65;;;;;;;;;;5141333;27;20056;-85
2021/08/03 11:31:55;;;;;;;7.72;6.75;;;;;;;;;;5140397;27;20034;-84
2021/08/03 11:34:23;;;;;;;7.90;7.10;;;;;;;;;;5138486;27;20031;-84
2021/08/03 11:36:56;;;;;;;9.80;7.72;;;;;;;;;;5141361;27;20075;-84
2021/08/03 11:39:24;;;;;;;8.75;7.20;;;;;;;;;;5141455;27;20034;-84
2021/08/03 11:41:50;;;;;;;10.05;6.95;;;;;;;;;;5141159;27;20031;-84
2021/08/03 11:44:17;;;;;;;8.00;5.97;;;;;;;;;;5141363;27;20286;-85
2021/08/03 11:46:44;;;;;;;8.35;6.18;;;;;;;;;;5141318;27;20038;-84
2021/08/03 11:49:10;;;;;;;6.78;5.07;;;;;;;;;;5141376;27;20417;-94
2021/08/03 11:51:43;;;;;;;9.85;5.78;;;;;;;;;;5139847;27;20144;-85
2021/08/03 11:54:19;;;;;;;10.57;6.00;;;;;;;;;;5141222;27;20033;-84
2021/08/03 11:56:45;;;;;;;7.10;5.38;;;;;;;;;;5141042;27;20023;-84
2021/08/03 11:59:11;;;;;;;6.57;5.88;;;;;;;;;;5139908;27;20039;-85
2021/08/03 12:01:50;;;;;;;7.60;5.60;;;;;;;;;;5140876;27;20080;-85
2021/08/03 12:04:17;;;;;;;9.20;5.82;;;;;;;;;;5141103;27;20023;-85
2021/08/03 12:06:43;;;;;;;10.75;6.72;;;;;;;;;;5140935;27;20414;-85
2021/08/03 12:09:10;;;;;;;9.38;7.18;;;;;;;;;;5140924;27;20100;-85
2021/08/03 12:11:37;;;;;;;10.98;6.93;;;;;;;;;;5139469;27;20062;-86
2021/08/03 12:14:09;;;;;;;7.10;6.40;;;;;;;;;;5140610;27;20023;-84
2021/08/03 12:16:36;;;;;;;8.13;6.65;;;;;;;;;;5139426;27;20054;-84
2021/08/03 12:19:02;;;;;;;8.25;6.60;;;;;;;;;;5139283;27;20114;-84
2021/08/03 12:21:35;;;;;;;6.68;5.68;;;;;;;;;;5139678;27;20019;-84
2021/08/03 12:24:08;;;;;;;6.38;5.72;;;;;;;;;;5139372;27;20047;-84
2021/08/03 12:26:35;;;;;;;7.50;5.55;;;;;;;;;;5140273;27;20072;-84
2021/08/03 12:40:40;;;;;;;7.68;6.30;;;;;;;;;;5115108;27;20369;-85
2021/08/03 12:43:06;;;;;;;8.80;6.88;;;;;;;;;;5114902;28;20055;-85
2021/08/03 12:45:33;;;;;;;7.70;6.47;;;;;;;;;;5114965;28;20042;-85
2021/08/03 12:48:03;;;;;;;8.85;6.88;;;;;;;;;;5114783;28;20425;-84
2021/08/03 12:50:30;;;;;;;8.50;7.00;;;;;;;;;;5113718;28;20028;-85
2021/08/03 12:52:58;;;;;;;7.50;6.70;;;;;;;;;;5114838;28;20024;-84
2021/08/03 12:55:26;;;;;;;10.60;7.38;;;;;;;;;;5114657;28;20020;-85
2021/08/03 12:57:56;;;;;;;7.75;6.80;;;;;;;;;;5114740;28;20046;-84
2021/08/03 13:00:32;;;;;;;8.33;6.50;;;;;;;;;;5114699;28;20111;-85
2021/08/03 13:02:59;;;;;;;8.50;6.50;;;;;;;;;;5114548;28;20035;-84
2021/08/03 13:05:25;;;;;;;7.82;7.13;;;;;;;;;;5114674;28;20023;-84
2021/08/03 13:07:51;;;;;;;10.10;7.40;;;;;;;;;;5113315;28;20028;-84
2021/08/03 13:10:17;;;;;;;8.52;6.63;;;;;;;;;;5114388;28;20028;-85
2021/08/03 13:12:43;;;;;;;7.93;7.00;;;;;;;;;;5114383;28;20397;-85
2021/08/03 13:15:10;;;;;;;9.77;6.72;;;;;;;;;;5114377;28;20039;-84
2021/08/03 13:17:36;;;;;;;9.75;6.43;;;;;;;;;;5114353;28;20050;-84
2021/08/03 13:20:02;;;;;;;9.05;6.63;;;;;;;;;;5114369;28;20035;-84
2021/08/03 13:22:28;;;;;;;8.57;6.22;;;;;;;;;;5113275;28;20036;-85
2021/08/03 13:24:54;;;;;;;6.68;5.68;;;;;;;;;;5114119;28;20050;-84
2021/08/03 13:27:20;;;;;;;13.80;6.72;;;;;;;;;;5112957;28;20036;-84
2021/08/03 13:29:46;;;;;;;10.60;6.65;;;;;;;;;;5114093;28;20053;-85
2021/08/03 13:32:12;;;;;;;7.85;6.22;;;;;;;;;;5113809;28;20030;-85
2021/08/03 13:34:38;;;;;;;9.70;7.30;;;;;;;;;;5114077;28;20027;-85
2021/08/03 13:37:04;;;;;;;9.25;7.22;;;;;;;;;;5113279;28;20028;-84
2021/08/03 13:39:31;;;;;;;7.43;6.60;;;;;;;;;;5112415;28;20052;-85
2021/08/03 13:41:57;;;;;;;10.32;6.63;;;;;;;;;;5099774;28;20027;-84
2021/08/03 13:44:23;;;;;;;7.85;6.70;;;;;;;;;;5099916;28;20032;-85
2021/08/03 13:46:49;;;;;;;12.48;8.43;;;;;;;;;;5100161;28;20064;-84
2021/08/03 13:49:15;;;;;;;10.32;6.45;;;;;;;;;;5099186;28;20028;-85
2021/08/03 13:51:41;;;;;;;9.98;6.25;;;;;;;;;;5100029;28;20031;-85
2021/08/03 13:54:07;;;;;;;7.93;5.85;;;;;;;;;;5098970;28;20413;-84
2021/08/03 13:56:33;;;;;;;10.07;8.00;;;;;;;;;;5100139;28;20024;-85
2021/08/03 13:59:00;;;;;;;11.70;7.13;;;;;;;;;;5099911;28;20111;-85
2021/08/03 14:01:26;;;;;;;8.82;5.25;;;;;;;;;;5100265;28;20073;-87
2021/08/03 14:03:52;;;;;;;6.25;5.40;;;;;;;;;;5096776;28;20039;-86
2021/08/03 14:06:20;;;;;;;7.88;5.13;;;;;;;;;;5098897;28;20471;-86
2021/08/03 14:08:46;;;;;;;8.20;5.47;;;;;;;;;;5100354;28;20035;-85
2021/08/03 14:11:13;;;;;;;8.15;4.97;;;;;;;;;;5099999;28;20024;-88
2021/08/03 14:13:39;;;;;;;5.85;5.00;;;;;;;;;;5099618;28;20027;-86
2021/08/03 14:16:06;;;;;;;6.93;4.90;;;;;;;;;;5099548;28;20095;-86
2021/08/03 14:18:32;;;;;;;7.82;4.85;;;;;;;;;;5098551;28;20440;-86
2021/08/03 14:20:58;;;;;;;9.32;4.75;;;;;;;;;;5099291;28;20047;-86
2021/08/03 14:23:25;;;;;;;5.53;4.68;;;;;;;;;;5099736;28;20024;-86
2021/08/03 14:25:51;;;;;;;7.55;5.45;;;;;;;;;;5099596;28;20032;-85
2021/08/03 14:28:17;;;;;;;6.72;5.25;;;;;;;;;;5098389;28;20535;-86
2021/08/03 14:30:43;;;;;;;8.15;6.15;;;;;;;;;;5099441;28;20055;-86
2021/08/03 14:33:09;;;;;;;8.85;5.75;;;;;;;;;;5107137;28;20038;-86
2021/08/03 14:35:35;;;;;;;9.07;5.53;;;;;;;;;;5118640;28;20027;-86
2021/08/03 14:38:02;;;;;;;7.50;4.50;;;;;;;;;;5119565;28;20027;-86
2021/08/03 14:40:28;;;;;;;7.88;4.70;;;;;;;;;;5119422;28;20065;-86
2021/08/03 14:42:54;;;;;;;5.45;4.20;;;;;;;;;;5119623;28;20069;-86
2021/08/03 14:45:20;;;;;;;4.75;3.95;;;;;;;;;;5119544;28;20350;-81
2021/08/03 14:47:46;;;;;;;5.32;3.50;;;;;;;;;;5118785;27;20413;-86
2021/08/03 14:50:13;;;;;;;7.45;4.30;;;;;;;;;;5120027;28;20020;-96
2021/08/03 14:52:39;;;;;;;4.53;3.72;;;;;;;;;;5118666;28;20047;-88
2021/08/03 14:55:05;;;;;;;4.10;3.70;;;;;;;;;;5119389;28;20023;-88
2021/08/03 14:57:31;;;;;;;5.78;3.90;;;;;;;;;;5119102;28;20019;-89